Catalina, CA

4:19 AM PST on February 23, 2017 (GMT -0800)
Catalina | | Change Station
Active Advisory: High Surf Advisory Active Notice: High Surf Advisory

Elev 1601 ft 33.40 °N, 118.42 °W | Updated 28 minutes ago

Scattered Clouds
Scattered Clouds
46 °F
Feels Like 41 °F
N
12
Wind Variable Wind from NW
Gusts 21 mph

Today
High -- | Low -- °F
--% Chance of Precip.
Yesterday
High -- | Low -- °F
Precip. -- in
Pressure 30.02 in
Visibility 10.0 miles
Clouds Scattered Clouds 1900 ft
Windchill 41 °F
Dew Point 40 °F
Humidity 79%
Rainfall 0.00 in
Snow Depth Not available.
6:28 AM 5:45 PM
Waning Crescent, 11% visible
METAR KAVX 231151Z AUTO 31010G18KT 10SM SCT019 08/04 A3002 RMK AO2 SLP166 T00780044 10089 20072 56009 TSNO $
Pressure 30.02 in
Visibility 10.0 miles
Clouds Scattered Clouds 1900 ft
Windchill 41 °F
Dew Point 40 °F
Humidity 79%
Rainfall 0.00 in
Snow Depth Not available.
6:28 AM 5:45 PM
Waning Crescent, 11% visible
METAR KAVX 231151Z AUTO 31010G18KT 10SM SCT019 08/04 A3002 RMK AO2 SLP166 T00780044 10089 20072 56009 TSNO $

Get Your Daily Forecast Email!

Thanks for signing up!

Be on the lookout for a verification email in your inbox.

You'll start receiving the daily forecast at 8 AM.

×

10-Day Weather Forecast

Almanac

Astronomy

Feb. 23, 2017 Rise Set
Actual Time
Civil Twilight
Nautical Twilight
Astronomical Twilight
Moon
Length of Visible Light
Length of Day
Tomorrow will be .
, % of the Moon is Illuminated

Today's Extremes

State Highs State Lows

Community

WunderPhotos

Upload Photos

1,962,540 photos uploaded!

WunderBlog® & News

Nearby

Air Quality

  Air Quality AQ Index Pollutant
Not available.

Snow Depth

Station Depth Elevation

Earthquake Activity

City Distance Mag. Time & Date
Minimum magnitude displayed is 2.5.

Coastal Water Temperatures

Place Temperature

Stations

Nearby Weather Stations

Station Location Temp. Windchill Dew Point Humidity Wind Precip. Elev Updated Type
                   

Watches & Warnings

High Surf Advisory
Issued: 3:13 AM PST Feb. 23, 2017 – National Weather Service

... High surf advisory remains in effect until 9 PM PST this
evening...

* surf... surf of 6 to 10 feet with local sets up to 12 feet will
continue across Los Angeles and Ventura County beaches through
late Thursday. The largest surf will likely occur on west
facing beaches such as Ventura and el porto.

* Impacts... large waves and strong rip currents will increase
the risk of ocean drowning for swimmers and surfers. Large
breaking waves can cause injury... wash people off beaches and
rocks... and capsize small boats nearshore.

Precautionary/preparedness actions...

A high surf advisory means that high surf will affect beaches in
the advisory area... producing localized beach erosion and
dangerous swimming conditions.